Time;durP1;ratioP1;P1;durP2;ratioP2;P2;SDS_P1;SDS_P2;PMS_P1;PMS_P2;Temp;Humidity;BMP_temperature;BMP_pressure;BME280_temperature;BME280_humidity;BME280_pressure;Samples;Min_cycle;Max_cycle;Signal;HPM_P1;HPM_P2
2023/10/14 13:29:13;;;;;;;2.22;0.50;;;;;;;;;;5079153;28;20439;-75
2023/10/14 13:31:43;;;;;;;4.60;0.77;;;;;;;;;;5078847;28;20048;-75
2023/10/14 13:34:13;;;;;;;0.50;0.30;;;;;;;;;;5079309;28;20059;-76
2023/10/14 13:36:44;;;;;;;0.80;0.40;;;;;;;;;;5079212;28;20060;-75
2023/10/14 13:39:34;;;;;;;1.83;0.30;;;;;;;;;;5078655;28;20056;-76
2023/10/14 13:42:08;;;;;;;0.47;0.20;;;;;;;;;;5078388;28;20071;-76
2023/10/14 13:44:38;;;;;;;0.70;0.30;;;;;;;;;;5079666;28;20052;-76
2023/10/14 13:47:09;;;;;;;0.50;0.32;;;;;;;;;;5079166;28;20079;-76
2023/10/14 13:49:42;;;;;;;3.35;1.00;;;;;;;;;;5080168;28;20055;-76
2023/10/14 13:52:16;;;;;;;2.53;0.32;;;;;;;;;;5078216;28;20055;-75
2023/10/14 13:54:47;;;;;;;1.05;0.22;;;;;;;;;;5078902;28;20051;-76
2023/10/14 13:57:19;;;;;;;0.32;0.22;;;;;;;;;;5078790;28;20052;-75
2023/10/14 13:59:53;;;;;;;6.78;0.80;;;;;;;;;;5078376;28;20127;-75
2023/10/14 14:02:24;;;;;;;3.25;0.40;;;;;;;;;;5079544;28;20041;-76
2023/10/14 14:04:54;;;;;;;0.30;0.30;;;;;;;;;;5077930;28;20706;-76
2023/10/14 14:07:24;;;;;;;0.30;0.22;;;;;;;;;;5078480;28;20048;-75
2023/10/14 14:09:54;;;;;;;1.42;0.30;;;;;;;;;;5078490;28;20139;-78
2023/10/14 14:12:26;;;;;;;1.52;0.60;;;;;;;;;;5078515;28;20052;-74
2023/10/14 14:14:56;;;;;;;0.73;0.60;;;;;;;;;;5078201;28;20056;-76
2023/10/14 14:17:26;;;;;;;3.30;0.35;;;;;;;;;;5078952;28;20052;-74
2023/10/14 14:19:57;;;;;;;1.00;0.40;;;;;;;;;;5078494;28;20052;-76
2023/10/14 14:22:27;;;;;;;4.10;0.40;;;;;;;;;;5078153;28;20502;-76
2023/10/14 14:25:00;;;;;;;0.55;0.32;;;;;;;;;;5078762;28;20052;-75
2023/10/14 14:27:30;;;;;;;3.03;0.60;;;;;;;;;;5078416;28;20106;-76
2023/10/14 14:30:01;;;;;;;2.13;0.73;;;;;;;;;;5078590;28;20051;-75
2023/10/14 14:32:36;;;;;;;0.80;0.30;;;;;;;;;;5077579;28;20407;-75
2023/10/14 14:35:08;;;;;;;1.42;0.30;;;;;;;;;;5078595;28;20059;-74
2023/10/14 14:37:40;;;;;;;0.50;0.50;;;;;;;;;;5077371;28;20395;-79
2023/10/14 14:40:14;;;;;;;3.55;0.50;;;;;;;;;;5066431;28;20443;-77
2023/10/14 14:42:47;;;;;;;2.08;0.40;;;;;;;;;;5063660;28;20037;-79
2023/10/14 14:45:25;;;;;;;0.65;0.30;;;;;;;;;;5063815;28;20057;-75
2023/10/14 14:47:58;;;;;;;2.47;0.40;;;;;;;;;;5064561;28;20517;-76
2023/10/14 14:50:34;;;;;;;3.08;0.40;;;;;;;;;;5064265;28;20053;-75
2023/10/14 14:53:06;;;;;;;;;;;;;;;;;;5064408;28;20114;-75
2023/10/14 14:55:42;;;;;;;1.42;0.43;;;;;;;;;;5064491;28;19924;-75
2023/10/14 14:58:14;;;;;;;0.40;0.20;;;;;;;;;;5063895;28;20527;-74
2023/10/14 15:00:45;;;;;;;1.52;0.32;;;;;;;;;;5065549;28;20041;-74
2023/10/14 15:03:20;;;;;;;0.68;0.30;;;;;;;;;;5063904;28;20057;-77
2023/10/14 15:05:51;;;;;;;1.27;0.40;;;;;;;;;;5064871;28;20055;-75
2023/10/14 15:08:23;;;;;;;1.95;0.60;;;;;;;;;;5064579;28;20052;-76
2023/10/14 15:10:55;;;;;;;0.77;0.40;;;;;;;;;;5064228;28;20044;-76
2023/10/14 15:13:27;;;;;;;0.60;0.50;;;;;;;;;;5063413;28;20063;-75
2023/10/14 15:15:58;;;;;;;1.35;0.30;;;;;;;;;;5063458;28;20048;-77
2023/10/14 15:18:29;;;;;;;2.35;0.60;;;;;;;;;;5063577;28;20052;-75
2023/10/14 15:20:59;;;;;;;2.83;0.30;;;;;;;;;;5063493;28;20065;-75
2023/10/14 15:23:29;;;;;;;1.10;0.30;;;;;;;;;;5063117;28;20055;-76
2023/10/14 15:26:00;;;;;;;1.40;0.40;;;;;;;;;;5063382;28;20079;-74
2023/10/14 15:28:30;;;;;;;0.40;0.40;;;;;;;;;;5063769;28;20060;-75
2023/10/14 15:31:07;;;;;;;1.48;0.30;;;;;;;;;;5064023;28;20048;-75
2023/10/14 15:33:37;;;;;;;1.30;0.50;;;;;;;;;;5062765;28;20063;-76
2023/10/14 15:36:11;;;;;;;1.55;0.50;;;;;;;;;;5063803;28;20053;-76
2023/10/14 15:38:42;;;;;;;0.85;0.55;;;;;;;;;;5063424;28;20059;-74
2023/10/14 15:41:13;;;;;;;1.08;0.40;;;;;;;;;;5064308;28;20045;-75
2023/10/14 15:43:43;;;;;;;1.70;0.50;;;;;;;;;;5064402;28;20056;-75
2023/10/14 15:46:13;;;;;;;1.98;0.32;;;;;;;;;;5063052;28;20506;-75
2023/10/14 15:48:44;;;;;;;1.10;0.52;;;;;;;;;;5063424;28;20052;-74
2023/10/14 15:51:20;;;;;;;2.95;0.70;;;;;;;;;;5061617;28;20059;-75
2023/10/14 15:53:52;;;;;;;0.55;0.17;;;;;;;;;;5063441;28;20049;-75
2023/10/14 15:56:22;;;;;;;4.00;0.55;;;;;;;;;;5062371;28;20048;-76
2023/10/14 15:58:52;;;;;;;1.35;0.68;;;;;;;;;;5062508;28;20072;-76
2023/10/14 16:01:24;;;;;;;1.45;0.50;;;;;;;;;;5062765;28;20052;-75
2023/10/14 16:03:55;;;;;;;2.50;1.15;;;;;;;;;;5062146;28;20064;-76
2023/10/14 16:06:26;;;;;;;4.10;2.17;;;;;;;;;;5062734;28;20059;-76
2023/10/14 16:08:57;;;;;;;2.08;0.40;;;;;;;;;;5062595;28;20056;-76
2023/10/14 16:11:28;;;;;;;3.65;0.50;;;;;;;;;;5063152;28;20049;-76
2023/10/14 16:14:02;;;;;;;2.13;0.55;;;;;;;;;;5063171;28;20056;-75
2023/10/14 16:16:33;;;;;;;1.00;0.55;;;;;;;;;;5062873;28;20063;-74
2023/10/14 16:19:04;;;;;;;1.45;0.32;;;;;;;;;;5063026;28;20060;-74
2023/10/14 16:21:37;;;;;;;4.13;0.50;;;;;;;;;;5063291;28;20045;-74
2023/10/14 16:24:09;;;;;;;3.65;0.60;;;;;;;;;;5062269;28;20052;-74
2023/10/14 16:26:40;;;;;;;2.47;0.38;;;;;;;;;;5061999;28;20053;-74
2023/10/14 16:29:12;;;;;;;47.45;2.30;;;;;;;;;;5062961;28;20430;-75
2023/10/14 16:31:43;;;;;;;30.55;1.67;;;;;;;;;;5062391;28;20060;-75
2023/10/14 16:34:15;;;;;;;1.15;0.40;;;;;;;;;;5062200;28;20060;-75
2023/10/14 16:36:45;;;;;;;0.32;0.30;;;;;;;;;;5061914;28;20514;-74
2023/10/14 16:39:16;;;;;;;1.05;0.55;;;;;;;;;;5062842;28;20086;-74
2023/10/14 16:41:47;;;;;;;3.50;0.43;;;;;;;;;;5062498;28;20056;-76
2023/10/14 16:44:18;;;;;;;0.98;0.40;;;;;;;;;;5061808;28;20049;-74
2023/10/14 16:46:49;;;;;;;1.73;0.47;;;;;;;;;;5061902;28;20056;-75
2023/10/14 16:49:19;;;;;;;2.65;0.40;;;;;;;;;;5062258;28;20056;-74
2023/10/14 16:51:49;;;;;;;1.02;0.38;;;;;;;;;;5061878;28;20072;-74
2023/10/14 16:54:19;;;;;;;2.72;0.55;;;;;;;;;;5062140;28;20055;-74
2023/10/14 16:56:50;;;;;;;1.38;0.60;;;;;;;;;;5061873;28;20055;-75
2023/10/14 16:59:23;;;;;;;2.40;0.40;;;;;;;;;;5062352;28;20091;-76
2023/10/14 17:01:53;;;;;;;3.40;0.77;;;;;;;;;;5062063;28;20063;-75
2023/10/14 17:04:25;;;;;;;5.72;0.55;;;;;;;;;;5061667;28;20053;-75
2023/10/14 17:06:55;;;;;;;0.77;0.32;;;;;;;;;;5061648;28;20639;-74
2023/10/14 17:09:27;;;;;;;3.28;0.52;;;;;;;;;;5061622;28;20057;-75
2023/10/14 17:11:58;;;;;;;1.58;0.40;;;;;;;;;;5061397;28;20059;-75
2023/10/14 17:14:32;;;;;;;2.53;0.57;;;;;;;;;;5061251;28;20056;-75
2023/10/14 17:17:06;;;;;;;1.90;0.40;;;;;;;;;;5061342;28;20052;-75
2023/10/14 17:19:37;;;;;;;3.00;0.50;;;;;;;;;;5062077;28;20060;-76
2023/10/14 17:22:08;;;;;;;2.88;0.55;;;;;;;;;;5062007;28;20053;-76
2023/10/14 17:24:38;;;;;;;2.33;0.52;;;;;;;;;;5061367;28;20060;-79
2023/10/14 17:27:09;;;;;;;2.60;0.32;;;;;;;;;;5061492;28;20068;-76
2023/10/14 17:29:40;;;;;;;3.88;0.60;;;;;;;;;;5061945;28;20056;-76
2023/10/14 17:32:12;;;;;;;8.27;0.73;;;;;;;;;;5062460;28;20525;-76
2023/10/14 17:34:42;;;;;;;3.78;1.15;;;;;;;;;;5061939;28;20044;-75
2023/10/14 17:37:12;;;;;;;22.67;4.85;;;;;;;;;;5062036;28;20067;-74
2023/10/14 17:39:42;;;;;;;4.10;0.95;;;;;;;;;;5061082;28;20044;-74
2023/10/14 17:42:13;;;;;;;4.72;0.63;;;;;;;;;;5062196;28;20079;-75
2023/10/14 17:44:45;;;;;;;2.38;0.45;;;;;;;;;;5061566;28;20060;-75
2023/10/14 17:47:15;;;;;;;1.50;0.52;;;;;;;;;;5061301;28;20048;-75
2023/10/14 17:49:45;;;;;;;2.70;0.80;;;;;;;;;;5061112;28;20052;-74
2023/10/14 17:52:17;;;;;;;1.90;0.55;;;;;;;;;;5061392;28;20040;-75
2023/10/14 17:54:53;;;;;;;3.15;0.30;;;;;;;;;;5060993;28;20431;-74
2023/10/14 17:57:24;;;;;;;9.85;1.77;;;;;;;;;;5061820;28;20064;-75
2023/10/14 17:59:56;;;;;;;3.45;0.65;;;;;;;;;;5061776;28;20377;-74
2023/10/14 18:02:27;;;;;;;3.85;0.35;;;;;;;;;;5061621;28;20063;-75
2023/10/14 18:04:58;;;;;;;1.95;0.30;;;;;;;;;;5061061;28;20048;-75
2023/10/14 18:07:28;;;;;;;4.97;0.43;;;;;;;;;;5061545;28;20530;-75
2023/10/14 18:09:58;;;;;;;2.13;0.75;;;;;;;;;;5061052;28;20582;-75
2023/10/14 18:12:28;;;;;;;1.25;0.50;;;;;;;;;;5060935;28;20063;-75
2023/10/14 18:14:59;;;;;;;1.88;0.50;;;;;;;;;;5063039;28;20060;-78
2023/10/14 18:17:31;;;;;;;0.85;0.55;;;;;;;;;;5065359;28;20075;-75
2023/10/14 18:20:05;;;;;;;2.45;0.35;;;;;;;;;;5064630;28;20063;-74
2023/10/14 18:22:36;;;;;;;2.85;0.50;;;;;;;;;;5063913;28;20527;-74
2023/10/14 18:25:09;;;;;;;3.92;0.75;;;;;;;;;;5064461;28;20056;-75
2023/10/14 18:27:42;;;;;;;6.03;0.50;;;;;;;;;;5063834;28;20056;-75
2023/10/14 18:30:14;;;;;;;4.55;0.43;;;;;;;;;;5065246;28;20051;-74
2023/10/14 18:32:47;;;;;;;1.38;0.30;;;;;;;;;;5064471;28;20060;-74
2023/10/14 18:35:24;;;;;;;0.70;0.43;;;;;;;;;;5063886;28;20053;-74
2023/10/14 18:37:56;;;;;;;2.65;0.40;;;;;;;;;;5064462;28;20507;-76
2023/10/14 18:40:29;;;;;;;2.83;0.40;;;;;;;;;;5065064;28;20053;-72
2023/10/14 18:43:02;;;;;;;2.83;0.57;;;;;;;;;;5064059;28;20052;-74
2023/10/14 18:45:34;;;;;;;6.20;1.30;;;;;;;;;;5064550;28;20790;-74
2023/10/14 18:48:09;;;;;;;6.28;1.00;;;;;;;;;;5064735;28;20063;-72
2023/10/14 18:50:44;;;;;;;12.40;1.95;;;;;;;;;;5063364;28;20051;-75
2023/10/14 18:53:14;;;;;;;7.38;1.48;;;;;;;;;;5063744;28;20049;-72
2023/10/14 18:55:52;;;;;;;7.05;0.85;;;;;;;;;;5063603;28;20525;-74
2023/10/14 18:58:24;;;;;;;37.88;4.55;;;;;;;;;;5064088;28;20067;-75
2023/10/14 19:00:56;;;;;;;56.70;6.00;;;;;;;;;;5063632;28;20052;-73
2023/10/14 19:03:26;;;;;;;3.38;0.50;;;;;;;;;;5064031;28;20059;-71
2023/10/14 19:05:57;;;;;;;21.58;2.55;;;;;;;;;;5063974;28;20495;-75
2023/10/14 19:08:28;;;;;;;0.95;0.50;;;;;;;;;;5063172;28;20053;-73
2023/10/14 19:11:00;;;;;;;3.90;0.35;;;;;;;;;;5062978;28;20060;-73
2023/10/14 19:13:31;;;;;;;5.00;0.38;;;;;;;;;;5063216;28;20061;-73
2023/10/14 19:16:04;;;;;;;1.02;0.30;;;;;;;;;;5063241;28;20052;-75
2023/10/14 19:18:35;;;;;;;4.97;0.60;;;;;;;;;;5064260;28;20056;-73
2023/10/14 19:21:06;;;;;;;1.35;0.40;;;;;;;;;;5063435;28;20055;-73
2023/10/14 19:23:38;;;;;;;1.63;0.32;;;;;;;;;;5063638;28;20048;-74
2023/10/14 19:26:10;;;;;;;3.88;0.75;;;;;;;;;;5063013;28;20059;-73
2023/10/14 19:28:41;;;;;;;3.25;0.82;;;;;;;;;;5063432;28;20052;-75
2023/10/14 19:31:12;;;;;;;3.42;0.40;;;;;;;;;;5064085;28;20059;-73
2023/10/14 19:33:43;;;;;;;2.33;0.30;;;;;;;;;;5063438;28;20058;-74
2023/10/14 19:36:13;;;;;;;2.60;0.52;;;;;;;;;;5064624;28;20063;-76
2023/10/14 19:38:43;;;;;;;2.97;0.40;;;;;;;;;;5063515;28;20052;-76
2023/10/14 19:41:13;;;;;;;3.55;0.70;;;;;;;;;;5063211;28;20522;-72
2023/10/14 19:43:46;;;;;;;0.50;0.30;;;;;;;;;;5061827;28;20059;-72
2023/10/14 19:46:16;;;;;;;2.00;0.60;;;;;;;;;;5062459;28;20518;-73
2023/10/14 19:48:48;;;;;;;1.45;0.47;;;;;;;;;;5061606;28;20052;-71
2023/10/14 19:51:19;;;;;;;6.47;0.70;;;;;;;;;;5062901;28;20055;-76
2023/10/14 19:53:49;;;;;;;1.42;0.50;;;;;;;;;;5063490;28;20044;-76
2023/10/14 19:56:20;;;;;;;3.70;0.60;;;;;;;;;;5062981;28;20047;-73
2023/10/14 19:58:51;;;;;;;2.08;0.70;;;;;;;;;;5062497;28;20384;-72
2023/10/14 20:01:22;;;;;;;4.75;0.60;;;;;;;;;;5062313;28;20075;-72
2023/10/14 20:03:53;;;;;;;1.65;0.40;;;;;;;;;;5063225;28;20040;-73
2023/10/14 20:06:24;;;;;;;4.18;0.57;;;;;;;;;;5063510;28;20049;-71
2023/10/14 20:08:55;;;;;;;2.72;0.68;;;;;;;;;;5063124;28;20062;-72
2023/10/14 20:11:30;;;;;;;4.25;0.55;;;;;;;;;;5062261;28;20052;-72
2023/10/14 20:14:02;;;;;;;0.88;0.52;;;;;;;;;;5062993;28;20044;-71
2023/10/14 20:16:32;;;;;;;3.10;0.50;;;;;;;;;;5062739;28;20037;-71
2023/10/14 20:19:04;;;;;;;2.42;0.52;;;;;;;;;;5063553;28;20068;-72
2023/10/14 20:21:35;;;;;;;6.55;0.47;;;;;;;;;;5061859;28;20056;-72
2023/10/14 20:24:06;;;;;;;7.65;0.88;;;;;;;;;;5061767;28;20060;-72
2023/10/14 20:26:36;;;;;;;2.97;0.52;;;;;;;;;;5059881;28;20056;-75
2023/10/14 20:29:06;;;;;;;2.75;0.60;;;;;;;;;;5057046;28;20065;-73
2023/10/14 20:31:37;;;;;;;5.15;0.77;;;;;;;;;;5059896;28;20045;-76
2023/10/14 20:34:12;;;;;;;3.65;0.65;;;;;;;;;;5062564;28;20043;-74
2023/10/14 20:36:42;;;;;;;4.72;0.50;;;;;;;;;;5060801;28;20048;-72
2023/10/14 20:39:28;;;;;;;2.58;0.60;;;;;;;;;;5058247;28;20060;-72
2023/10/14 20:41:59;;;;;;;7.53;0.55;;;;;;;;;;5061496;28;20076;-74
2023/10/14 20:45:25;;;;;;;6.90;0.70;;;;;;;;;;5059379;28;20424;-73
2023/10/14 20:48:05;;;;;;;2.00;0.82;;;;;;;;;;5059173;28;20044;-73
2023/10/14 20:50:37;;;;;;;1.55;0.63;;;;;;;;;;5059762;28;20063;-72
2023/10/14 20:53:08;;;;;;;2.78;0.90;;;;;;;;;;5058271;28;20056;-72
2023/10/14 20:55:41;;;;;;;1.45;0.50;;;;;;;;;;5045007;28;20053;-73
2023/10/14 20:58:11;;;;;;;7.80;0.70;;;;;;;;;;5038641;28;20057;-72
2023/10/14 21:00:42;;;;;;;2.42;0.63;;;;;;;;;;5039502;28;20056;-74
2023/10/14 21:03:20;;;;;;;2.72;0.90;;;;;;;;;;5038460;28;20610;-74
2023/10/14 21:05:55;;;;;;;1.80;0.60;;;;;;;;;;5038421;28;20049;-73
2023/10/14 21:08:25;;;;;;;2.53;0.52;;;;;;;;;;5038805;28;20530;-72
2023/10/14 21:10:57;;;;;;;1.60;0.95;;;;;;;;;;5038927;28;20055;-71
2023/10/14 21:13:28;;;;;;;4.63;0.50;;;;;;;;;;5038467;28;20068;-72
2023/10/14 21:16:04;;;;;;;5.72;1.30;;;;;;;;;;5038428;28;20053;-72
2023/10/14 21:18:35;;;;;;;6.55;0.70;;;;;;;;;;5038205;28;20080;-73
